Time;durP1;ratioP1;P1;durP2;ratioP2;P2;SDS_P1;SDS_P2;PMS_P1;PMS_P2;Temp;Humidity;BMP_temperature;BMP_pressure;BME280_temperature;BME280_humidity;BME280_pressure;Samples;Min_cycle;Max_cycle;Signal;HPM_P1;HPM_P2
2021/12/16 00:09:19;;;;;;;32.67;14.85;;;;;;;;;;4973122;28;20463;-66
2021/12/16 00:31:05;;;;;;;28.30;14.27;;;;;;;;;;4969493;28;20438;-66
2021/12/16 00:33:35;;;;;;;35.90;15.32;;;;;;;;;;4970144;28;20356;-66
2021/12/16 00:36:01;;;;;;;29.33;13.80;;;;;;;;;;4971098;28;20376;-67
2021/12/16 00:38:27;;;;;;;32.95;15.07;;;;;;;;;;4970247;28;20471;-66
2021/12/16 00:40:54;;;;;;;32.72;15.30;;;;;;;;;;4953289;28;20376;-67
2021/12/16 00:43:28;;;;;;;30.80;14.88;;;;;;;;;;4952466;28;20491;-67
2021/12/16 00:54:12;;;;;;;32.00;16.45;;;;;;;;;;4970963;28;20115;-67
2021/12/16 00:56:42;;;;;;;27.42;14.68;;;;;;;;;;4970782;28;20426;-66
2021/12/16 00:59:10;;;;;;;33.38;15.02;;;;;;;;;;4970653;28;20388;-67
2021/12/16 01:07:08;;;;;;;28.88;13.80;;;;;;;;;;4935878;28;20492;-67
2021/12/16 01:10:15;;;;;;;32.95;15.52;;;;;;;;;;4951443;28;20766;-66
2021/12/16 01:34:45;;;;;;;30.13;14.02;;;;;;;;;;4950350;28;20103;-66
2021/12/16 01:48:18;;;;;;;26.80;14.52;;;;;;;;;;4950077;28;20396;-67
2021/12/16 01:50:42;;;;;;;29.73;14.25;;;;;;;;;;4934830;28;20443;-66
2021/12/16 01:56:03;;;;;;;25.45;14.40;;;;;;;;;;4950408;28;20389;-67
2021/12/16 01:58:31;;;;;;;28.55;14.77;;;;;;;;;;4949673;28;20338;-66
2021/12/16 02:01:22;;;;;;;27.57;13.50;;;;;;;;;;4932173;28;20528;-66
2021/12/16 02:04:01;;;;;;;27.92;13.10;;;;;;;;;;4949539;28;20576;-73
2021/12/16 02:06:57;;;;;;;24.23;12.50;;;;;;;;;;4949705;28;20406;-67
2021/12/16 02:09:32;;;;;;;23.85;13.02;;;;;;;;;;4949788;28;20429;-67
2021/12/16 02:28:16;;;;;;;22.48;13.27;;;;;;;;;;4950756;28;20519;-67
2021/12/16 02:35:45;;;;;;;22.42;11.35;;;;;;;;;;4936570;28;20429;-66
2021/12/16 02:38:14;;;;;;;25.92;12.65;;;;;;;;;;4936722;28;20038;-66
2021/12/16 02:40:41;;;;;;;25.10;12.13;;;;;;;;;;4953028;28;20533;-67
2021/12/16 02:48:29;;;;;;;26.83;13.20;;;;;;;;;;4939089;28;20329;-67
2021/12/16 02:50:57;;;;;;;27.23;12.90;;;;;;;;;;4937022;28;20381;-67
2021/12/16 02:53:23;;;;;;;21.95;12.02;;;;;;;;;;4919337;28;20030;-67
2021/12/16 02:55:48;;;;;;;23.92;11.52;;;;;;;;;;4935545;28;20487;-67
2021/12/16 02:58:15;;;;;;;29.05;12.23;;;;;;;;;;4934612;28;20468;-67
2021/12/16 03:00:43;;;;;;;25.95;12.27;;;;;;;;;;4953205;28;20052;-67
2021/12/16 03:03:09;;;;;;;21.70;11.52;;;;;;;;;;4934716;28;20507;-67
2021/12/16 03:05:35;;;;;;;23.90;11.50;;;;;;;;;;4953286;28;20445;-68
2021/12/16 03:08:00;;;;;;;25.55;12.45;;;;;;;;;;4953800;28;20346;-67
2021/12/16 03:13:05;;;;;;;25.00;12.60;;;;;;;;;;4953557;28;20441;-67
2021/12/16 03:21:17;;;;;;;31.67;13.10;;;;;;;;;;4952588;28;20377;-66
2021/12/16 03:24:03;;;;;;;23.27;11.75;;;;;;;;;;4952251;28;20104;-67
2021/12/16 03:26:55;;;;;;;23.75;12.82;;;;;;;;;;4937081;28;20048;-67
2021/12/16 03:32:04;;;;;;;23.58;11.73;;;;;;;;;;4935251;28;20109;-66
2021/12/16 03:34:41;;;;;;;23.45;11.77;;;;;;;;;;4952994;28;20416;-67
2021/12/16 03:37:18;;;;;;;22.40;10.68;;;;;;;;;;4951866;28;20029;-67
2021/12/16 03:39:52;;;;;;;26.23;11.95;;;;;;;;;;4918729;28;20345;-66
2021/12/16 03:42:39;;;;;;;25.55;11.45;;;;;;;;;;4952577;28;20415;-67
2021/12/16 03:48:17;;;;;;;23.60;12.18;;;;;;;;;;4938023;28;20380;-67
2021/12/16 03:50:42;;;;;;;21.15;10.75;;;;;;;;;;4951997;28;20381;-66
2021/12/16 03:53:13;;;;;;;23.77;11.85;;;;;;;;;;4951659;28;20432;-67
2021/12/16 03:55:39;;;;;;;25.35;11.60;;;;;;;;;;4952907;28;20356;-66
2021/12/16 03:58:04;;;;;;;25.05;13.02;;;;;;;;;;4953526;28;20360;-68
2021/12/16 04:00:34;;;;;;;27.40;11.85;;;;;;;;;;4933987;28;20425;-66
2021/12/16 04:03:00;;;;;;;22.70;11.82;;;;;;;;;;4918017;28;20334;-67
2021/12/16 04:05:25;;;;;;;24.08;12.30;;;;;;;;;;4951321;28;20401;-66
2021/12/16 04:07:51;;;;;;;20.65;11.57;;;;;;;;;;4934271;28;20358;-66
2021/12/16 04:10:23;;;;;;;23.35;12.65;;;;;;;;;;4917897;28;20395;-67
2021/12/16 04:12:50;;;;;;;21.88;11.35;;;;;;;;;;4934034;28;20498;-67
2021/12/16 04:15:15;;;;;;;27.30;12.35;;;;;;;;;;4951840;28;20472;-67
2021/12/16 04:17:41;;;;;;;26.27;11.73;;;;;;;;;;4933180;28;20437;-67
2021/12/16 04:20:10;;;;;;;25.27;11.57;;;;;;;;;;4951150;28;20426;-66
2021/12/16 04:22:41;;;;;;;22.83;11.60;;;;;;;;;;4934101;28;20635;-67
2021/12/16 04:25:15;;;;;;;20.88;10.40;;;;;;;;;;4934036;28;20175;-67
2021/12/16 04:27:42;;;;;;;23.33;11.65;;;;;;;;;;4933327;28;20065;-67
2021/12/16 04:30:09;;;;;;;22.27;10.35;;;;;;;;;;4932773;28;20341;-67
2021/12/16 04:32:34;;;;;;;21.35;11.02;;;;;;;;;;4950779;28;20425;-67
2021/12/16 04:34:59;;;;;;;21.33;12.65;;;;;;;;;;4951124;28;20488;-66
2021/12/16 04:37:25;;;;;;;24.95;11.38;;;;;;;;;;4933523;28;20441;-67
2021/12/16 04:39:50;;;;;;;26.38;11.48;;;;;;;;;;4952102;28;20054;-66
2021/12/16 04:42:19;;;;;;;21.10;11.05;;;;;;;;;;4950938;28;20364;-67
2021/12/16 04:44:45;;;;;;;22.20;11.50;;;;;;;;;;4950551;28;20511;-67
2021/12/16 04:47:11;;;;;;;21.85;11.13;;;;;;;;;;4933009;28;20433;-66
2021/12/16 04:49:36;;;;;;;22.00;11.15;;;;;;;;;;4950780;28;20356;-67
2021/12/16 04:52:09;;;;;;;24.10;10.93;;;;;;;;;;4951662;28;20038;-67
2021/12/16 04:54:35;;;;;;;22.38;11.25;;;;;;;;;;4950960;28;20444;-67
2021/12/16 04:57:01;;;;;;;23.45;11.98;;;;;;;;;;4951123;28;20517;-67
2021/12/16 04:59:30;;;;;;;22.80;11.38;;;;;;;;;;4950669;28;20469;-66
2021/12/16 05:01:58;;;;;;;25.08;12.20;;;;;;;;;;4950801;28;20109;-66
2021/12/16 05:04:24;;;;;;;28.35;13.52;;;;;;;;;;4950723;28;20460;-67
2021/12/16 05:06:51;;;;;;;23.00;12.40;;;;;;;;;;4949828;28;20560;-67
2021/12/16 05:09:41;;;;;;;18.92;10.70;;;;;;;;;;4951790;28;20088;-66
2021/12/16 05:12:02;;;;;;;19.75;9.82;;;;;;;;;;4935650;28;20484;-66
2021/12/16 05:14:27;;;;;;;25.00;11.40;;;;;;;;;;4950850;28;20457;-67
2021/12/16 05:16:53;;;;;;;25.08;10.23;;;;;;;;;;4949965;28;20026;-67
2021/12/16 05:19:20;;;;;;;20.17;9.75;;;;;;;;;;4950772;28;20322;-66
2021/12/16 05:21:53;;;;;;;21.30;10.93;;;;;;;;;;4951524;28;20306;-67
2021/12/16 05:24:27;;;;;;;24.67;10.63;;;;;;;;;;4933280;28;20357;-67
2021/12/16 05:27:00;;;;;;;22.23;11.00;;;;;;;;;;4933437;28;20532;-67
2021/12/16 05:29:25;;;;;;;23.27;9.75;;;;;;;;;;4916178;28;20346;-67
2021/12/16 05:31:52;;;;;;;24.15;11.45;;;;;;;;;;4951098;28;20376;-67
2021/12/16 05:34:18;;;;;;;20.98;10.75;;;;;;;;;;4932586;28;20448;-66
2021/12/16 05:36:44;;;;;;;19.83;10.10;;;;;;;;;;4932355;28;20396;-67
2021/12/16 05:39:11;;;;;;;23.50;10.82;;;;;;;;;;4932677;28;20372;-67
2021/12/16 05:41:37;;;;;;;18.48;9.02;;;;;;;;;;4932336;28;20437;-81
2021/12/16 05:44:02;;;;;;;21.00;11.43;;;;;;;;;;4932297;28;20531;-66
2021/12/16 05:46:28;;;;;;;21.15;11.73;;;;;;;;;;4949861;28;20319;-67
2021/12/16 05:48:55;;;;;;;24.10;11.00;;;;;;;;;;4950380;28;20439;-67
2021/12/16 05:51:24;;;;;;;23.58;11.32;;;;;;;;;;4931573;28;20372;-67
2021/12/16 05:53:51;;;;;;;25.40;11.13;;;;;;;;;;4949530;28;20446;-66
2021/12/16 05:56:17;;;;;;;21.88;10.05;;;;;;;;;;4949115;28;20377;-66
2021/12/16 05:58:42;;;;;;;19.55;9.90;;;;;;;;;;4949466;28;20364;-67
2021/12/16 06:01:14;;;;;;;17.38;9.05;;;;;;;;;;4931216;28;20448;-67
2021/12/16 06:03:40;;;;;;;19.98;10.63;;;;;;;;;;4949414;28;20373;-67
2021/12/16 06:06:06;;;;;;;20.27;10.07;;;;;;;;;;4929238;28;20483;-66
2021/12/16 06:08:31;;;;;;;24.88;10.75;;;;;;;;;;4931455;28;20357;-67
2021/12/16 06:13:44;;;;;;;19.50;10.10;;;;;;;;;;4933421;28;20322;-67
2021/12/16 06:27:11;;;;;;;20.33;9.43;;;;;;;;;;4966300;28;20099;-67
2021/12/16 06:29:39;;;;;;;19.48;9.50;;;;;;;;;;4967375;28;20352;-67
2021/12/16 06:32:05;;;;;;;21.65;9.77;;;;;;;;;;4968177;28;20419;-70
2021/12/16 06:34:30;;;;;;;18.75;10.07;;;;;;;;;;4968320;28;20108;-66
2021/12/16 06:36:56;;;;;;;19.00;9.18;;;;;;;;;;4967976;28;20344;-66
2021/12/16 06:39:22;;;;;;;18.27;9.10;;;;;;;;;;4970067;28;20493;-66
2021/12/16 06:41:47;;;;;;;19.00;9.18;;;;;;;;;;4969948;28;20091;-66
2021/12/16 06:44:37;;;;;;;25.13;8.75;;;;;;;;;;4935307;28;20452;-66
2021/12/16 06:47:07;;;;;;;17.88;9.77;;;;;;;;;;4967779;28;20083;-66
2021/12/16 06:49:36;;;;;;;20.98;9.63;;;;;;;;;;4952667;28;20488;-66
2021/12/16 06:52:05;;;;;;;;;;;;;;;;;;4969390;28;20338;-66
2021/12/16 06:54:38;;;;;;;21.30;9.32;;;;;;;;;;4968180;28;19913;-66
2021/12/16 07:00:08;;;;;;;18.70;9.02;;;;;;;;;;4968926;28;20463;-67
2021/12/16 07:02:54;;;;;;;19.27;8.85;;;;;;;;;;4969456;28;20436;-66
2021/12/16 07:05:20;;;;;;;18.20;9.75;;;;;;;;;;4968449;28;20495;-67
2021/12/16 07:07:47;;;;;;;16.10;8.32;;;;;;;;;;4966616;28;20072;-66
2021/12/16 07:10:13;;;;;;;19.60;7.78;;;;;;;;;;4968705;28;20069;-66
2021/12/16 07:12:41;;;;;;;19.35;8.95;;;;;;;;;;4968811;28;20095;-67
2021/12/16 07:15:11;;;;;;;20.75;8.45;;;;;;;;;;4951215;28;20341;-66
2021/12/16 07:17:39;;;;;;;18.73;8.65;;;;;;;;;;4970744;28;20602;-66
2021/12/16 07:20:08;;;;;;;18.05;9.68;;;;;;;;;;4971856;28;20022;-66
2021/12/16 07:22:34;;;;;;;18.05;9.38;;;;;;;;;;4954444;28;20332;-66
2021/12/16 07:25:01;;;;;;;15.20;9.10;;;;;;;;;;4971854;28;20376;-66
2021/12/16 07:27:27;;;;;;;17.92;8.20;;;;;;;;;;4971929;28;20387;-66
2021/12/16 07:29:52;;;;;;;15.75;8.00;;;;;;;;;;4971978;28;20370;-67
2021/12/16 07:32:17;;;;;;;16.20;9.23;;;;;;;;;;4953328;28;20387;-66
2021/12/16 07:34:43;;;;;;;15.13;8.10;;;;;;;;;;4971255;28;20466;-67
2021/12/16 07:37:08;;;;;;;17.27;8.70;;;;;;;;;;4953703;28;20436;-66
2021/12/16 07:39:42;;;;;;;17.20;9.23;;;;;;;;;;4953823;28;20339;-66
2021/12/16 07:42:11;;;;;;;15.88;9.05;;;;;;;;;;4971929;28;20516;-66
2021/12/16 07:44:36;;;;;;;21.20;9.20;;;;;;;;;;4971435;28;20051;-69
2021/12/16 07:47:06;;;;;;;16.85;7.93;;;;;;;;;;4971577;28;20417;-69
2021/12/16 07:49:40;;;;;;;16.25;8.38;;;;;;;;;;4971437;28;20044;-68
2021/12/16 07:52:06;;;;;;;18.13;9.10;;;;;;;;;;4970969;28;20424;-66
2021/12/16 07:54:32;;;;;;;18.15;9.18;;;;;;;;;;4953476;28;20456;-66
2021/12/16 07:56:58;;;;;;;20.15;9.60;;;;;;;;;;4971342;28;20452;-66
2021/12/16 07:59:25;;;;;;;20.88;9.35;;;;;;;;;;4953613;28;20467;-66
2021/12/16 08:01:51;;;;;;;17.45;8.75;;;;;;;;;;4953613;28;20056;-66
2021/12/16 08:04:20;;;;;;;15.40;8.90;;;;;;;;;;4972814;28;20448;-66
2021/12/16 08:06:50;;;;;;;;;;;;;;;;;;4953575;28;20447;-67
2021/12/16 08:09:15;;;;;;;20.00;8.57;;;;;;;;;;4985996;28;20292;-66
2021/12/16 08:11:42;;;;;;;17.85;9.05;;;;;;;;;;4971248;28;20446;-66
2021/12/16 08:14:08;;;;;;;20.02;9.20;;;;;;;;;;4952966;28;20029;-67
2021/12/16 08:16:35;;;;;;;20.20;8.15;;;;;;;;;;4953009;28;20406;-66
2021/12/16 08:19:01;;;;;;;17.23;8.45;;;;;;;;;;4970425;28;20459;-67
2021/12/16 08:21:29;;;;;;;22.33;9.30;;;;;;;;;;4970585;28;20461;-67
2021/12/16 08:24:00;;;;;;;17.88;8.85;;;;;;;;;;4971128;28;20388;-66
2021/12/16 08:26:26;;;;;;;14.43;8.68;;;;;;;;;;4970499;28;20438;-66
2021/12/16 08:28:51;;;;;;;20.90;9.40;;;;;;;;;;4952388;28;20475;-67
2021/12/16 08:31:17;;;;;;;14.43;7.45;;;;;;;;;;4953569;28;20472;-67
2021/12/16 08:33:42;;;;;;;15.13;8.57;;;;;;;;;;4971294;28;20433;-66
2021/12/16 08:36:08;;;;;;;16.77;9.02;;;;;;;;;;4970700;28;20445;-66
2021/12/16 08:38:36;;;;;;;18.27;8.55;;;;;;;;;;4952504;28;20522;-67
2021/12/16 08:41:05;;;;;;;18.42;8.35;;;;;;;;;;4952349;28;20459;-67
2021/12/16 08:43:31;;;;;;;17.27;8.25;;;;;;;;;;4971994;28;20376;-67
2021/12/16 08:45:58;;;;;;;17.40;8.10;;;;;;;;;;4952455;28;20344;-66
2021/12/16 08:48:26;;;;;;;17.35;8.23;;;;;;;;;;4969886;28;20042;-66
2021/12/16 08:50:52;;;;;;;15.05;8.10;;;;;;;;;;4970848;28;20387;-66
2021/12/16 08:53:20;;;;;;;15.95;9.10;;;;;;;;;;4969963;28;20440;-66
2021/12/16 08:55:47;;;;;;;20.33;9.70;;;;;;;;;;4969994;28;20108;-67
2021/12/16 08:58:12;;;;;;;20.95;8.57;;;;;;;;;;4952754;28;20432;-66
2021/12/16 09:00:46;;;;;;;17.27;8.52;;;;;;;;;;4952073;28;20462;-66
2021/12/16 09:03:12;;;;;;;18.80;8.40;;;;;;;;;;4951848;28;20323;-67
2021/12/16 09:05:38;;;;;;;17.02;8.27;;;;;;;;;;4969862;28;20399;-67
2021/12/16 09:08:03;;;;;;;15.02;7.72;;;;;;;;;;4969493;28;20464;-66
2021/12/16 09:10:31;;;;;;;17.25;8.70;;;;;;;;;;4969050;28;20392;-67
2021/12/16 09:13:03;;;;;;;16.10;8.63;;;;;;;;;;4969338;28;20508;-67
2021/12/16 09:15:44;;;;;;;17.92;8.18;;;;;;;;;;4970258;28;20486;-67
2021/12/16 09:18:10;;;;;;;16.92;8.85;;;;;;;;;;4970315;28;20432;-67
2021/12/16 09:20:37;;;;;;;17.70;8.82;;;;;;;;;;4970669;28;20340;-67
2021/12/16 09:23:05;;;;;;;16.75;8.85;;;;;;;;;;4952581;28;20381;-66
2021/12/16 09:25:30;;;;;;;15.95;8.00;;;;;;;;;;4952052;28;20318;-67
2021/12/16 09:27:56;;;;;;;21.35;10.30;;;;;;;;;;4969185;28;20048;-66
2021/12/16 09:30:24;;;;;;;23.70;8.25;;;;;;;;;;4951193;28;20407;-66
2021/12/16 09:32:52;;;;;;;16.02;8.73;;;;;;;;;;4951483;28;20548;-67
2021/12/16 09:35:18;;;;;;;16.05;8.52;;;;;;;;;;4969830;28;20431;-67
2021/12/16 09:37:44;;;;;;;16.58;8.23;;;;;;;;;;4968921;28;20364;-67
2021/12/16 09:40:14;;;;;;;21.30;8.30;;;;;;;;;;4935025;28;20341;-67
2021/12/16 09:42:39;;;;;;;12.55;7.03;;;;;;;;;;4969433;28;20360;-66
2021/12/16 09:45:08;;;;;;;14.70;8.02;;;;;;;;;;4969717;28;20084;-67
2021/12/16 09:47:34;;;;;;;14.48;7.88;;;;;;;;;;4969133;28;20355;-66
2021/12/16 09:50:00;;;;;;;14.38;7.78;;;;;;;;;;4969083;28;20344;-67
2021/12/16 09:52:25;;;;;;;13.40;8.05;;;;;;;;;;4968875;28;20029;-66
2021/12/16 09:54:50;;;;;;;17.92;9.75;;;;;;;;;;4969062;28;20321;-66
2021/12/16 09:57:16;;;;;;;15.27;8.68;;;;;;;;;;4970549;28;20440;-67
2021/12/16 09:59:42;;;;;;;17.88;8.63;;;;;;;;;;4969681;28;20355;-66
2021/12/16 10:02:12;;;;;;;17.05;8.38;;;;;;;;;;4951635;28;20475;-67
2021/12/16 10:04:38;;;;;;;16.42;8.77;;;;;;;;;;4952705;28;20333;-67
2021/12/16 10:07:10;;;;;;;17.88;9.02;;;;;;;;;;4951103;28;20506;-67
2021/12/16 10:09:36;;;;;;;18.92;8.52;;;;;;;;;;4970693;28;20037;-67
2021/12/16 10:12:07;;;;;;;15.48;8.15;;;;;;;;;;4968983;28;20464;-67
2021/12/16 10:14:46;;;;;;;16.55;7.65;;;;;;;;;;4968501;28;20428;-67
2021/12/16 10:17:23;;;;;;;18.38;7.88;;;;;;;;;;4953420;28;20436;-67
2021/12/16 10:19:48;;;;;;;19.05;9.02;;;;;;;;;;4969084;28;20464;-67
2021/12/16 10:22:39;;;;;;;16.60;8.10;;;;;;;;;;4968714;28;20458;-67
2021/12/16 10:25:30;;;;;;;15.13;8.13;;;;;;;;;;4969265;28;20030;-67
2021/12/16 10:28:01;;;;;;;17.52;8.55;;;;;;;;;;4969403;28;20353;-68
2021/12/16 10:31:04;;;;;;;17.27;7.22;;;;;;;;;;4968352;28;20530;-67
2021/12/16 10:33:38;;;;;;;16.10;7.80;;;;;;;;;;4969607;28;20376;-66
2021/12/16 10:36:25;;;;;;;17.83;9.13;;;;;;;;;;4968164;28;20501;-67
2021/12/16 10:38:59;;;;;;;16.35;7.93;;;;;;;;;;4951151;28;20347;-67
2021/12/16 10:41:27;;;;;;;13.27;7.25;;;;;;;;;;4950682;28;20428;-67
2021/12/16 10:43:55;;;;;;;20.73;9.23;;;;;;;;;;4970401;28;20337;-69
2021/12/16 10:46:27;;;;;;;18.13;8.88;;;;;;;;;;4950375;28;20421;-68
2021/12/16 10:48:56;;;;;;;13.73;7.30;;;;;;;;;;4968969;28;20545;-67
2021/12/16 10:51:24;;;;;;;16.65;6.80;;;;;;;;;;4950886;28;20332;-66
2021/12/16 10:54:06;;;;;;;17.45;7.75;;;;;;;;;;4954148;28;20518;-66
2021/12/16 10:56:40;;;;;;;17.08;8.07;;;;;;;;;;4972828;28;20033;-67
2021/12/16 10:59:12;;;;;;;12.13;7.32;;;;;;;;;;4972978;28;20464;-67
2021/12/16 11:01:51;;;;;;;12.30;7.15;;;;;;;;;;4955022;28;20036;-67
2021/12/16 11:04:24;;;;;;;14.27;6.65;;;;;;;;;;4972874;28;20502;-67
2021/12/16 11:06:57;;;;;;;15.52;7.60;;;;;;;;;;4972561;28;20558;-66
2021/12/16 11:09:34;;;;;;;15.13;6.88;;;;;;;;;;4954584;28;20464;-67
2021/12/16 11:12:10;;;;;;;11.93;6.60;;;;;;;;;;4972018;28;20438;-67
2021/12/16 11:14:37;;;;;;;13.50;7.68;;;;;;;;;;4971836;28;20368;-67
2021/12/16 11:17:05;;;;;;;15.90;8.13;;;;;;;;;;4954960;28;20353;-66
2021/12/16 11:19:43;;;;;;;15.90;7.88;;;;;;;;;;4939131;28;20368;-67
2021/12/16 11:22:09;;;;;;;14.32;7.18;;;;;;;;;;4971793;28;20026;-67
2021/12/16 11:24:35;;;;;;;11.90;6.47;;;;;;;;;;4954603;28;20399;-67
2021/12/16 11:27:22;;;;;;;15.00;6.82;;;;;;;;;;4971972;28;20391;-67
2021/12/16 11:29:47;;;;;;;13.77;6.88;;;;;;;;;;4954680;28;20340;-66
2021/12/16 11:32:34;;;;;;;12.88;6.63;;;;;;;;;;4954876;28;20681;-66
2021/12/16 11:35:00;;;;;;;11.82;6.97;;;;;;;;;;4972146;28;20458;-68
2021/12/16 11:37:25;;;;;;;10.90;6.22;;;;;;;;;;4972640;28;20395;-67
2021/12/16 11:39:51;;;;;;;13.30;7.10;;;;;;;;;;4954005;28;20352;-67
2021/12/16 11:42:26;;;;;;;14.48;7.47;;;;;;;;;;4955218;28;20432;-67
2021/12/16 11:44:52;;;;;;;9.93;6.03;;;;;;;;;;4954654;28;20339;-67
2021/12/16 11:47:20;;;;;;;13.73;6.72;;;;;;;;;;4971865;28;20344;-66
2021/12/16 11:49:50;;;;;;;13.60;7.22;;;;;;;;;;4954408;28;20411;-67
2021/12/16 11:52:31;;;;;;;12.27;7.25;;;;;;;;;;4971256;28;20482;-66
2021/12/16 11:55:00;;;;;;;12.70;6.70;;;;;;;;;;4972062;28;20017;-67
2021/12/16 11:57:37;;;;;;;14.07;6.07;;;;;;;;;;4972369;28;20318;-67
2021/12/16 12:00:11;;;;;;;12.73;6.53;;;;;;;;;;4971200;28;20132;-67
2021/12/16 12:02:57;;;;;;;13.77;6.72;;;;;;;;;;4971892;28;20387;-67
2021/12/16 12:05:29;;;;;;;11.85;6.22;;;;;;;;;;4953532;28;20436;-67
2021/12/16 12:08:08;;;;;;;13.15;6.68;;;;;;;;;;4972287;28;20344;-67
2021/12/16 12:10:44;;;;;;;14.63;6.15;;;;;;;;;;4971301;28;20330;-67
2021/12/16 12:13:16;;;;;;;12.93;6.40;;;;;;;;;;4953062;28;20330;-67
2021/12/16 12:16:08;;;;;;;12.35;6.22;;;;;;;;;;4971380;28;20216;-67
2021/12/16 12:18:35;;;;;;;10.80;6.72;;;;;;;;;;4953811;28;20034;-66
2021/12/16 12:21:58;;;;;;;11.93;6.13;;;;;;;;;;4970991;28;20480;-70
2021/12/16 12:24:37;;;;;;;10.35;5.43;;;;;;;;;;4955251;28;20329;-66
2021/12/16 12:27:11;;;;;;;10.20;6.03;;;;;;;;;;4953397;28;20419;-67
2021/12/16 12:29:55;;;;;;;9.35;6.03;;;;;;;;;;4970642;28;20344;-67
2021/12/16 12:32:29;;;;;;;13.13;6.10;;;;;;;;;;4952890;28;20498;-66
2021/12/16 12:35:02;;;;;;;13.00;6.40;;;;;;;;;;4953526;28;20049;-67
2021/12/16 12:37:31;;;;;;;10.30;5.47;;;;;;;;;;4972001;28;20029;-67
2021/12/16 12:40:26;;;;;;;11.38;5.78;;;;;;;;;;4971853;28;20375;-67
2021/12/16 12:42:53;;;;;;;10.02;5.53;;;;;;;;;;4970889;28;20402;-67
2021/12/16 12:45:21;;;;;;;10.57;5.47;;;;;;;;;;4953604;28;20340;-66
2021/12/16 12:47:50;;;;;;;9.80;4.87;;;;;;;;;;4970659;28;20451;-67
2021/12/16 12:50:20;;;;;;;7.75;4.65;;;;;;;;;;4971165;28;20701;-67
2021/12/16 12:52:48;;;;;;;;;;;;;;;;;;4971512;28;20433;-67
2021/12/16 12:55:20;;;;;;;10.50;5.47;;;;;;;;;;4970504;28;20307;-67
2021/12/16 12:57:46;;;;;;;10.45;5.13;;;;;;;;;;4953473;28;20498;-66
2021/12/16 13:00:37;;;;;;;12.93;6.35;;;;;;;;;;4970403;28;20375;-66
2021/12/16 13:03:11;;;;;;;9.15;5.53;;;;;;;;;;4952647;28;20433;-67
2021/12/16 13:05:37;;;;;;;9.07;6.35;;;;;;;;;;4970861;28;20309;-67
2021/12/16 13:08:06;;;;;;;12.77;5.32;;;;;;;;;;4969651;28;20123;-67
2021/12/16 13:10:59;;;;;;;8.70;5.35;;;;;;;;;;4970324;28;20065;-67
2021/12/16 13:16:10;;;;;;;8.73;4.25;;;;;;;;;;4969899;28;20356;-67
2021/12/16 13:27:02;;;;;;;9.27;5.50;;;;;;;;;;4970069;28;20425;-67
2021/12/16 13:32:10;;;;;;;8.07;4.47;;;;;;;;;;4953301;28;20475;-70
2021/12/16 13:34:57;;;;;;;9.80;5.13;;;;;;;;;;4953117;28;20467;-67
2021/12/16 13:37:32;;;;;;;8.18;4.70;;;;;;;;;;4969444;28;20474;-68
2021/12/16 13:40:04;;;;;;;8.50;4.45;;;;;;;;;;4970016;28;20464;-66
2021/12/16 13:42:54;;;;;;;6.95;3.97;;;;;;;;;;4969655;28;20037;-67
2021/12/16 13:45:34;;;;;;;12.02;5.38;;;;;;;;;;4969821;28;20487;-67
2021/12/16 14:02:05;;;;;;;7.82;4.63;;;;;;;;;;4970825;28;20463;-67
2021/12/16 14:10:17;;;;;;;9.32;4.68;;;;;;;;;;4968512;28;20328;-69
2021/12/16 14:15:59;;;;;;;8.85;4.18;;;;;;;;;;4969172;28;20348;-67
2021/12/16 14:26:50;;;;;;;7.35;4.03;;;;;;;;;;4970339;28;20516;-67
2021/12/16 14:48:27;;;;;;;15.07;5.57;;;;;;;;;;4939344;28;20341;-67
2021/12/16 14:51:03;;;;;;;9.30;5.00;;;;;;;;;;4968045;28;20029;-69
2021/12/16 14:53:29;;;;;;;9.25;5.10;;;;;;;;;;4969125;28;20483;-67
2021/12/16 14:55:59;;;;;;;12.70;5.82;;;;;;;;;;4968861;28;20368;-67
2021/12/16 14:58:25;;;;;;;11.85;5.13;;;;;;;;;;4968929;28;20444;-67
2021/12/16 15:01:18;;;;;;;8.93;4.15;;;;;;;;;;4950823;28;20056;-67
2021/12/16 15:03:45;;;;;;;9.25;5.13;;;;;;;;;;4968379;28;20120;-67
2021/12/16 15:06:44;;;;;;;11.32;5.10;;;;;;;;;;4952349;28;20336;-67
2021/12/16 15:09:19;;;;;;;;;;;;;;;;;;4968764;28;20322;-68
2021/12/16 15:15:17;;;;;;;10.60;5.15;;;;;;;;;;4950728;28;20372;-67
2021/12/16 15:44:58;;;;;;;9.77;4.40;;;;;;;;;;4916601;28;20596;-67
2021/12/16 15:47:24;;;;;;;11.02;5.10;;;;;;;;;;4971927;28;20021;-67
2021/12/16 15:49:50;;;;;;;11.35;4.45;;;;;;;;;;4972792;28;20505;-67
2021/12/16 15:52:16;;;;;;;11.02;5.20;;;;;;;;;;4971669;28;20352;-67
2021/12/16 15:54:47;;;;;;;10.30;5.05;;;;;;;;;;4953742;28;20337;-67
2021/12/16 15:57:12;;;;;;;9.75;5.10;;;;;;;;;;4971926;28;20382;-67
2021/12/16 15:59:40;;;;;;;9.95;4.72;;;;;;;;;;4955361;28;20353;-67
2021/12/16 16:02:06;;;;;;;9.13;4.80;;;;;;;;;;4972093;28;20421;-67
2021/12/16 16:04:34;;;;;;;9.20;4.75;;;;;;;;;;4972887;28;20472;-68
2021/12/16 16:07:04;;;;;;;9.68;4.57;;;;;;;;;;4953459;28;20453;-67
2021/12/16 16:09:46;;;;;;;10.52;4.10;;;;;;;;;;4971408;28;20425;-67
2021/12/16 16:12:16;;;;;;;9.23;4.80;;;;;;;;;;4953632;28;20463;-67
2021/12/16 16:14:46;;;;;;;11.27;5.50;;;;;;;;;;4954177;28;20356;-67
2021/12/16 16:17:18;;;;;;;12.20;4.60;;;;;;;;;;4971725;28;20432;-67
2021/12/16 16:19:44;;;;;;;11.95;4.68;;;;;;;;;;4953970;28;20092;-67
2021/12/16 16:22:10;;;;;;;11.45;4.53;;;;;;;;;;4971531;28;20313;-67
2021/12/16 16:24:37;;;;;;;11.73;4.53;;;;;;;;;;4953887;28;20348;-66
2021/12/16 16:27:13;;;;;;;9.05;4.32;;;;;;;;;;4971400;28;20459;-66
2021/12/16 16:29:40;;;;;;;8.05;4.30;;;;;;;;;;4954051;28;20364;-67
2021/12/16 16:32:06;;;;;;;9.32;4.13;;;;;;;;;;4953794;28;20422;-67
2021/12/16 16:34:39;;;;;;;10.80;4.32;;;;;;;;;;4971455;28;20328;-67
2021/12/16 16:37:06;;;;;;;10.60;4.38;;;;;;;;;;4953129;28;20415;-67
2021/12/16 16:39:37;;;;;;;9.48;4.80;;;;;;;;;;4952859;28;20348;-67
2021/12/16 16:42:06;;;;;;;11.75;4.90;;;;;;;;;;4970800;28;20336;-67
2021/12/16 16:44:33;;;;;;;10.40;5.60;;;;;;;;;;4953713;28;20459;-67
2021/12/16 16:47:11;;;;;;;8.55;4.40;;;;;;;;;;4953735;28;20383;-67
2021/12/16 16:49:53;;;;;;;12.47;5.50;;;;;;;;;;4970066;28;20022;-67
2021/12/16 16:52:18;;;;;;;9.95;4.57;;;;;;;;;;4953529;28;20437;-67
2021/12/16 16:54:48;;;;;;;9.82;4.47;;;;;;;;;;4970614;28;20452;-67
2021/12/16 16:57:21;;;;;;;9.30;4.47;;;;;;;;;;4971464;28;20517;-67
2021/12/16 16:59:49;;;;;;;10.65;4.82;;;;;;;;;;4952566;28;20483;-67
2021/12/16 17:02:14;;;;;;;10.23;4.65;;;;;;;;;;4972427;28;20420;-67
2021/12/16 17:04:40;;;;;;;7.38;4.28;;;;;;;;;;4970466;28;20459;-67
2021/12/16 17:07:05;;;;;;;8.02;4.35;;;;;;;;;;4952298;28;20349;-67
2021/12/16 17:09:35;;;;;;;13.82;5.30;;;;;;;;;;4970723;28;20443;-67
2021/12/16 17:12:10;;;;;;;10.20;4.70;;;;;;;;;;4970092;28;20531;-67
2021/12/16 17:14:39;;;;;;;8.60;4.78;;;;;;;;;;4970199;28;20479;-67
2021/12/16 17:17:13;;;;;;;;;;;;;;;;;;4970666;28;20344;-66
2021/12/16 17:19:44;;;;;;;10.55;4.60;;;;;;;;;;4983947;28;19982;-67
2021/12/16 17:22:28;;;;;;;8.82;4.30;;;;;;;;;;4970121;28;20317;-73
2021/12/16 17:24:54;;;;;;;12.18;4.93;;;;;;;;;;4970008;28;20595;-67
2021/12/16 17:27:21;;;;;;;9.25;5.32;;;;;;;;;;4952413;28;20588;-67
2021/12/16 17:29:54;;;;;;;7.93;4.20;;;;;;;;;;4969883;28;20188;-67
2021/12/16 17:32:25;;;;;;;10.07;4.68;;;;;;;;;;4969908;28;20358;-67
2021/12/16 17:35:09;;;;;;;11.43;4.72;;;;;;;;;;4971069;28;20428;-66
2021/12/16 17:37:38;;;;;;;9.70;4.93;;;;;;;;;;4952940;28;20391;-66
2021/12/16 17:40:20;;;;;;;10.00;4.50;;;;;;;;;;4952088;28;20349;-67
2021/12/16 17:42:56;;;;;;;11.48;4.35;;;;;;;;;;4971581;28;20320;-67
2021/12/16 17:45:34;;;;;;;9.88;5.53;;;;;;;;;;4952155;28;20033;-67
2021/12/16 17:48:01;;;;;;;6.60;3.33;;;;;;;;;;4969640;28;20339;-67
2021/12/16 17:50:33;;;;;;;11.43;4.75;;;;;;;;;;4951219;28;20388;-67
2021/12/16 17:52:59;;;;;;;10.60;4.65;;;;;;;;;;4969622;28;20337;-68
2021/12/16 17:55:47;;;;;;;13.48;5.03;;;;;;;;;;4952132;28;20490;-68
2021/12/16 17:58:19;;;;;;;11.25;5.03;;;;;;;;;;4969375;28;20463;-67
2021/12/16 18:00:48;;;;;;;9.98;4.47;;;;;;;;;;4970161;28;20351;-67
2021/12/16 18:03:23;;;;;;;12.32;4.63;;;;;;;;;;4969916;28;20037;-67
2021/12/16 18:05:50;;;;;;;10.73;4.50;;;;;;;;;;4952833;28;20026;-66
2021/12/16 18:08:44;;;;;;;9.63;5.35;;;;;;;;;;4950876;28;20345;-67
2021/12/16 18:11:12;;;;;;;9.20;4.43;;;;;;;;;;4967417;28;20495;-67
2021/12/16 18:13:42;;;;;;;13.48;5.03;;;;;;;;;;4969506;28;20444;-67
2021/12/16 18:16:08;;;;;;;9.00;4.40;;;;;;;;;;4951577;28;20412;-67
2021/12/16 18:18:34;;;;;;;7.03;4.47;;;;;;;;;;4951491;28;20030;-66
2021/12/16 18:21:00;;;;;;;7.97;4.03;;;;;;;;;;4968920;28;20416;-67
2021/12/16 18:23:26;;;;;;;15.18;5.28;;;;;;;;;;4969276;28;20368;-66
2021/12/16 18:25:54;;;;;;;10.88;5.43;;;;;;;;;;4969292;28;20375;-70
2021/12/16 18:28:24;;;;;;;8.80;4.13;;;;;;;;;;4952670;28;20309;-67
2021/12/16 18:30:53;;;;;;;9.13;3.92;;;;;;;;;;4951561;28;20504;-67
2021/12/16 18:33:22;;;;;;;10.88;4.38;;;;;;;;;;4951568;28;20029;-66
2021/12/16 18:35:53;;;;;;;10.43;4.35;;;;;;;;;;4951573;28;20471;-67
2021/12/16 18:38:20;;;;;;;7.35;4.32;;;;;;;;;;4968834;28;20419;-66
2021/12/16 18:40:49;;;;;;;10.02;4.70;;;;;;;;;;4969723;28;20042;-67